Time;durP1;ratioP1;P1;durP2;ratioP2;P2;SDS_P1;SDS_P2;PMS_P1;PMS_P2;Temp;Humidity;BMP_temperature;BMP_pressure;BME280_temperature;BME280_humidity;BME280_pressure;Samples;Min_cycle;Max_cycle;Signal;HPM_P1;HPM_P2
2022/07/28 00:01:40;;;;;;;7.23;4.93;;;;;;;23.87;57.79;100300.52;124897;1099;104163;-77
2022/07/28 00:04:12;;;;;;;9.70;5.10;;;;;;;23.83;58.14;100298.80;124879;1099;104229;-78
2022/07/28 00:06:43;;;;;;;8.70;5.20;;;;;;;23.82;57.88;100291.67;124910;1098;102607;-78
2022/07/28 00:09:15;;;;;;;9.20;5.23;;;;;;;23.81;58.03;100301.52;124964;1099;104179;-77
2022/07/28 00:11:46;;;;;;;10.17;5.10;;;;;;;23.81;57.82;100296.16;124890;1099;102910;-78
2022/07/28 00:14:19;;;;;;;11.43;5.43;;;;;;;23.81;57.87;100300.61;124955;1099;104163;-78
2022/07/28 00:16:51;;;;;;;8.00;5.03;;;;;;;23.80;57.73;100306.91;124951;1099;102968;-78
2022/07/28 00:19:23;;;;;;;11.07;5.23;;;;;;;23.78;58.12;100308.72;124835;1099;104319;-78
2022/07/28 00:21:54;;;;;;;7.90;4.87;;;;;;;23.77;58.16;100299.81;124947;1099;104256;-78
2022/07/28 00:24:27;;;;;;;13.70;5.20;;;;;;;23.74;58.42;100294.52;124853;1099;104205;-78
2022/07/28 00:26:59;;;;;;;7.42;4.83;;;;;;;23.70;58.45;100300.88;124960;1099;104264;-78
2022/07/28 00:29:30;;;;;;;10.10;5.30;;;;;;;23.66;58.65;100300.05;124909;1099;102449;-77
2022/07/28 00:32:02;;;;;;;11.77;5.10;;;;;;;23.65;58.82;100294.72;124920;1100;104051;-78
2022/07/28 00:34:34;;;;;;;7.23;4.80;;;;;;;23.62;58.87;100295.69;124878;1099;102911;-77
2022/07/28 00:37:05;;;;;;;8.80;5.17;;;;;;;23.57;58.85;100302.05;124824;1098;104182;-78
2022/07/28 00:39:37;;;;;;;8.60;4.70;;;;;;;23.52;58.88;100299.46;124899;1099;104166;-78
2022/07/28 00:42:09;;;;;;;8.47;5.20;;;;;;;23.49;59.10;100300.39;124870;1099;104261;-78
2022/07/28 00:44:41;;;;;;;10.73;5.40;;;;;;;23.48;59.28;100295.07;124562;1099;104339;-78
2022/07/28 00:47:13;;;;;;;7.30;4.80;;;;;;;23.45;58.77;100292.45;124710;1099;104226;-78
2022/07/28 00:49:47;;;;;;;10.57;5.43;;;;;;;23.46;59.15;100295.11;124834;1099;102184;-78
2022/07/28 00:52:19;;;;;;;11.63;5.33;;;;;;;23.43;58.76;100307.69;124906;1099;104224;-78
2022/07/28 00:54:50;;;;;;;13.77;5.33;;;;;;;23.39;59.31;100300.62;124956;1099;102852;-78
2022/07/28 00:57:22;;;;;;;8.97;5.00;;;;;;;23.38;59.11;100310.45;124854;1099;104249;-78
2022/07/28 00:59:54;;;;;;;7.60;5.03;;;;;;;23.37;59.58;100310.48;124901;1099;102691;-77
2022/07/28 01:02:28;;;;;;;8.80;5.07;;;;;;;23.36;59.55;100306.94;125713;1099;102313;-78
2022/07/28 01:05:00;;;;;;;11.97;4.77;;;;;;;23.37;59.19;100314.03;124957;1099;102362;-78
2022/07/28 01:07:39;;;;;;;9.40;4.90;;;;;;;23.39;59.67;100314.00;125049;1099;104169;-78
2022/07/28 01:10:16;;;;;;;8.80;4.80;;;;;;;23.35;59.32;100313.19;124974;1098;104056;-78
2022/07/28 01:12:55;;;;;;;9.30;5.17;;;;;;;23.30;59.12;100307.05;124944;1099;104609;-78
2022/07/28 01:15:31;;;;;;;9.97;5.03;;;;;;;23.28;59.79;100306.19;124917;1099;104210;-77
2022/07/28 01:18:06;;;;;;;8.73;4.93;;;;;;;23.23;59.31;100292.89;124898;1099;104294;-78
2022/07/28 01:20:43;;;;;;;8.10;4.90;;;;;;;23.21;59.86;100294.73;124983;1098;104301;-78
2022/07/28 01:23:42;;;;;;;7.97;4.90;;;;;;;23.19;60.21;100295.66;124881;1099;104358;-78
2022/07/28 01:26:33;;;;;;;6.70;4.60;;;;;;;23.14;59.79;100293.10;125010;1099;104217;-78
2022/07/28 01:29:16;;;;;;;7.53;4.67;;;;;;;23.08;60.30;100302.12;124373;1099;112910;-78
2022/07/28 01:31:52;;;;;;;9.37;4.50;;;;;;;23.04;59.94;100302.17;124926;1099;104198;-78
2022/07/28 01:34:31;;;;;;;6.07;4.40;;;;;;;23.00;60.12;100300.45;124890;1098;102123;-78
2022/07/28 01:37:07;;;;;;;8.10;4.60;;;;;;;22.94;60.51;100296.98;124907;1099;104198;-78
2022/07/28 01:39:42;;;;;;;10.00;3.93;;;;;;;22.93;60.45;100295.22;124950;1099;104185;-78
2022/07/28 01:42:16;;;;;;;6.00;4.10;;;;;;;22.97;60.33;100296.93;124884;1098;104274;-78
2022/07/28 01:44:50;;;;;;;7.77;4.47;;;;;;;22.96;60.53;100291.61;124934;1099;104169;-77
2022/07/28 01:47:23;;;;;;;7.57;4.00;;;;;;;22.93;61.02;100297.89;124967;1099;102959;-80
2022/07/28 01:49:57;;;;;;;8.90;4.70;;;;;;;22.88;61.16;100286.40;124853;1099;107024;-81
2022/07/28 01:52:29;;;;;;;6.50;4.23;;;;;;;22.85;61.07;100294.48;124942;1099;103595;-77
2022/07/28 01:55:02;;;;;;;8.40;4.30;;;;;;;22.84;60.61;100290.03;124925;1098;104178;-78
2022/07/28 01:57:36;;;;;;;8.33;4.30;;;;;;;22.81;60.84;100287.41;124936;1099;102188;-78
2022/07/28 02:00:11;;;;;;;5.17;3.80;;;;;;;22.75;61.00;100290.20;124927;1099;117793;-78
2022/07/28 02:02:49;;;;;;;5.93;4.07;;;;;;;22.73;61.45;100295.57;124922;1099;104367;-79
2022/07/28 02:05:22;;;;;;;5.47;3.90;;;;;;;22.70;61.38;100290.27;124893;1099;104166;-78
2022/07/28 02:07:56;;;;;;;9.57;4.50;;;;;;;22.71;61.73;100293.86;124951;1099;104173;-78
2022/07/28 02:10:29;;;;;;;10.03;4.60;;;;;;;22.69;62.10;100296.55;124675;1099;104150;-77
2022/07/28 02:13:02;;;;;;;7.78;4.00;;;;;;;22.70;61.34;100297.42;124880;1099;104185;-77
2022/07/28 02:15:34;;;;;;;7.13;4.17;;;;;;;22.67;61.41;100290.33;124909;1099;104239;-78
2022/07/28 02:18:09;;;;;;;11.27;4.40;;;;;;;22.67;61.42;100294.80;124856;1099;104236;-78
2022/07/28 02:20:41;;;;;;;7.90;4.00;;;;;;;22.60;61.10;100297.58;124873;1099;112045;-78
2022/07/28 02:23:15;;;;;;;9.27;4.40;;;;;;;22.56;62.03;100303.91;124936;1099;104677;-78
2022/07/28 02:25:47;;;;;;;6.53;4.10;;;;;;;22.54;62.10;100303.03;124995;1099;102158;-78
2022/07/28 02:28:22;;;;;;;6.03;4.10;;;;;;;22.48;61.56;100313.83;124913;1099;104214;-77
2022/07/28 02:30:58;;;;;;;6.23;3.57;;;;;;;22.42;61.93;100308.58;124785;1099;104723;-77
2022/07/28 02:33:33;;;;;;;8.20;4.20;;;;;;;22.37;62.33;100313.12;124945;1099;104185;-77
2022/07/28 02:36:15;;;;;;;6.43;3.73;;;;;;;22.34;62.21;100324.74;124923;1099;102006;-78
2022/07/28 02:38:51;;;;;;;10.33;4.37;;;;;;;22.29;62.58;100336.39;125669;1099;104195;-77
2022/07/28 02:41:29;;;;;;;9.47;4.40;;;;;;;22.24;62.86;100326.65;125656;1099;102781;-78
2022/07/28 02:44:06;;;;;;;6.55;4.20;;;;;;;22.15;62.06;100310.75;125668;1099;104267;-78
2022/07/28 02:46:49;;;;;;;7.80;4.00;;;;;;;22.21;62.75;100332.04;125692;1098;104205;-77
2022/07/28 02:49:24;;;;;;;9.10;4.20;;;;;;;22.13;62.69;100330.38;125495;1099;104666;-79
2022/07/28 02:51:58;;;;;;;8.57;4.50;;;;;;;22.14;63.44;100342.84;124918;1099;102177;-77
2022/07/28 02:54:31;;;;;;;6.97;3.90;;;;;;;22.12;63.60;100341.98;124819;1099;102535;-78
2022/07/28 02:57:07;;;;;;;;;;;;;;;22.07;63.57;100350.06;124861;1099;104095;-78
2022/07/28 02:59:39;;;;;;;8.63;4.40;;;;;;;22.05;63.91;100351.89;125715;1099;104172;-78
2022/07/28 03:02:11;;;;;;;8.13;4.33;;;;;;;22.01;63.65;100345.68;124850;1099;102259;-78
2022/07/28 03:05:00;;;;;;;8.43;4.23;;;;;;;21.99;63.71;100352.84;124954;1099;104333;-78
2022/07/28 03:07:34;;;;;;;10.03;4.40;;;;;;;21.94;63.82;100349.36;125042;1099;104238;-80
2022/07/28 03:10:08;;;;;;;7.20;4.40;;;;;;;21.93;63.98;100347.58;124931;1099;104224;-78
2022/07/28 03:12:39;;;;;;;;;;;;;;;21.90;64.88;100343.16;124941;1099;104197;-79
2022/07/28 03:15:19;;;;;;;9.97;4.67;;;;;;;21.89;63.59;100346.75;125745;1099;104191;-78
2022/07/28 03:17:55;;;;;;;8.77;4.77;;;;;;;21.87;63.94;100353.88;125724;1099;104235;-79
2022/07/28 03:20:29;;;;;;;7.70;4.70;;;;;;;21.86;64.19;100362.81;125670;1098;104171;-78
2022/07/28 03:23:01;;;;;;;15.13;4.73;;;;;;;21.86;64.26;100356.57;124956;1099;104166;-79
2022/07/28 03:25:39;;;;;;;11.17;4.90;;;;;;;21.88;63.87;100366.34;124866;1099;104197;-76
2022/07/28 03:28:13;;;;;;;13.50;5.00;;;;;;;21.89;64.25;100365.45;124837;1099;102388;-77
2022/07/28 03:30:52;;;;;;;10.05;5.10;;;;;;;21.90;63.95;100377.88;124338;1099;102012;-76
2022/07/28 03:33:24;;;;;;;10.05;5.05;;;;;;;21.90;64.96;100372.53;124818;1099;104399;-76
2022/07/28 03:36:01;;;;;;;10.25;5.10;;;;;;;21.92;64.85;100364.50;124854;1099;104230;-76
2022/07/28 03:38:37;;;;;;;8.70;4.60;;;;;;;21.94;64.86;100377.84;124816;1099;104229;-76
2022/07/28 03:41:11;;;;;;;10.63;5.50;;;;;;;21.95;64.66;100377.82;124866;1099;104259;-76
2022/07/28 03:43:45;;;;;;;10.47;4.70;;;;;;;21.97;64.35;100383.14;124853;1099;102365;-76
2022/07/28 03:46:20;;;;;;;10.37;5.07;;;;;;;21.99;64.38;100387.57;124862;1099;104235;-76
2022/07/28 03:48:51;;;;;;;9.63;4.80;;;;;;;22.00;65.11;100394.70;124807;1099;104194;-77
2022/07/28 03:51:24;;;;;;;10.37;4.83;;;;;;;21.99;65.52;100389.37;124904;1099;104198;-77
2022/07/28 03:53:55;;;;;;;14.97;4.87;;;;;;;21.99;65.28;100389.37;124948;1099;104211;-77
2022/07/28 03:56:27;;;;;;;10.03;4.93;;;;;;;22.00;65.00;100404.48;125336;1099;102795;-77
2022/07/28 03:58:58;;;;;;;11.07;4.57;;;;;;;22.06;64.63;100405.30;124971;1099;104884;-78
2022/07/28 04:01:30;;;;;;;10.57;4.87;;;;;;;22.12;64.62;100404.31;124958;1098;104348;-77
2022/07/28 04:04:01;;;;;;;9.37;4.30;;;;;;;22.12;65.92;100406.98;125049;1099;102791;-78
2022/07/28 04:06:35;;;;;;;9.43;4.47;;;;;;;22.11;65.64;100405.24;124991;1099;104249;-79
2022/07/28 04:09:07;;;;;;;13.07;4.30;;;;;;;22.09;65.85;100404.36;124964;1099;104278;-77
2022/07/28 04:11:38;;;;;;;10.67;4.43;;;;;;;22.12;65.73;100403.45;124360;1099;104963;-78
2022/07/28 04:14:10;;;;;;;14.00;4.27;;;;;;;22.15;65.92;100408.75;124641;1099;104057;-80
2022/07/28 04:16:41;;;;;;;11.80;4.40;;;;;;;22.17;65.92;100410.47;124960;1099;104297;-78
2022/07/28 04:19:13;;;;;;;10.77;4.37;;;;;;;22.19;66.09;100410.45;124840;1097;104288;-78
2022/07/28 04:21:45;;;;;;;11.43;4.47;;;;;;;22.18;66.04;100406.91;124838;1099;103324;-79
2022/07/28 04:24:16;;;;;;;10.30;4.10;;;;;;;22.19;65.60;100407.78;124821;1099;104211;-78
2022/07/28 04:26:48;;;;;;;14.13;4.50;;;;;;;22.23;65.37;100410.39;124841;1099;104281;-78
2022/07/28 04:29:22;;;;;;;12.53;4.67;;;;;;;22.25;65.27;100405.92;125773;1099;104195;-78
2022/07/28 04:31:53;;;;;;;9.23;4.63;;;;;;;22.30;65.24;100407.63;125735;1098;104262;-79
2022/07/28 04:34:25;;;;;;;13.60;4.77;;;;;;;22.34;65.62;100406.73;124842;1099;103808;-79
2022/07/28 04:36:57;;;;;;;15.20;4.50;;;;;;;22.38;65.43;100405.79;124903;1099;103215;-78
2022/07/28 04:39:30;;;;;;;10.37;4.80;;;;;;;22.40;66.13;100409.31;124886;1099;104706;-78
2022/07/28 04:42:02;;;;;;;10.83;4.03;;;;;;;22.42;65.62;100407.49;124912;1099;102553;-79
2022/07/28 04:44:35;;;;;;;13.53;4.17;;;;;;;22.48;65.92;100412.75;124918;1099;104229;-79
2022/07/28 04:47:07;;;;;;;14.30;4.47;;;;;;;22.50;65.76;100405.61;124982;1099;101932;-78
2022/07/28 04:49:39;;;;;;;12.23;4.27;;;;;;;22.53;65.04;100412.69;124862;1099;104321;-78
2022/07/28 04:52:11;;;;;;;8.40;4.17;;;;;;;22.54;65.17;100414.46;124863;1099;104185;-78
2022/07/28 04:54:42;;;;;;;10.87;4.40;;;;;;;22.59;65.51;100418.84;124695;1099;102855;-78
2022/07/28 04:57:14;;;;;;;11.10;4.77;;;;;;;22.64;65.77;100421.45;124801;1099;104188;-77
2022/07/28 04:59:47;;;;;;;12.07;4.40;;;;;;;22.68;65.75;100425.83;124931;1099;104254;-79
2022/07/28 05:02:18;;;;;;;10.30;4.62;;;;;;;22.72;65.49;100421.30;124999;1099;104229;-78
2022/07/28 05:04:53;;;;;;;12.47;4.93;;;;;;;22.82;65.17;100412.23;125679;1099;104229;-78
2022/07/28 05:07:29;;;;;;;14.13;5.12;;;;;;;22.90;65.06;100418.33;117170;1099;10001377;-79
2022/07/28 05:10:04;;;;;;;19.37;5.23;;;;;;;22.98;65.36;100418.20;125869;1099;103690;-80
2022/07/28 05:12:46;;;;;;;12.00;4.93;;;;;;;22.99;65.27;100419.98;125530;1099;102235;-80
2022/07/28 05:15:23;;;;;;;9.83;4.67;;;;;;;22.96;64.85;100415.55;125878;1099;104174;-83
2022/07/28 05:18:04;;;;;;;7.87;4.80;;;;;;;22.94;64.80;100425.41;125822;1099;104150;-79
2022/07/28 05:20:39;;;;;;;8.10;4.60;;;;;;;22.95;65.12;100427.19;125867;1099;102517;-77
2022/07/28 05:23:12;;;;;;;8.37;4.97;;;;;;;23.02;65.06;100424.41;125485;1099;104290;-80
2022/07/28 05:25:48;;;;;;;10.60;5.25;;;;;;;23.05;65.13;100433.27;125751;1098;104169;-77
2022/07/28 05:28:24;;;;;;;10.03;4.80;;;;;;;23.09;64.64;100431.44;125684;1099;104159;-77
2022/07/28 05:31:09;;;;;;;9.53;4.97;;;;;;;23.14;64.62;100435.81;125538;1099;104214;-78
2022/07/28 05:33:49;;;;;;;12.13;5.17;;;;;;;23.24;64.88;100432.98;125592;1099;101946;-78
2022/07/28 05:36:35;;;;;;;10.70;4.90;;;;;;;23.31;64.53;100440.87;125646;1099;104256;-77
2022/07/28 05:39:09;;;;;;;8.60;5.10;;;;;;;23.36;64.13;100434.53;124789;1098;104172;-77
2022/07/28 05:42:06;;;;;;;10.63;4.97;;;;;;;23.37;64.06;100438.98;125108;1099;104171;-77
2022/07/28 05:44:46;;;;;;;11.07;5.27;;;;;;;23.44;64.64;100435.30;126220;1098;104162;-77
2022/07/28 05:47:31;;;;;;;13.13;5.50;;;;;;;23.57;64.07;100435.95;125640;1099;102081;-78
2022/07/28 05:50:17;;;;;;;8.07;4.83;;;;;;;23.71;63.92;100444.59;125661;1099;104181;-79
2022/07/28 05:53:01;;;;;;;11.50;4.83;;;;;;;23.84;63.79;100446.16;125642;1099;104211;-78
2022/07/28 05:55:47;;;;;;;12.07;5.07;;;;;;;23.93;63.37;100447.75;125011;1102;102257;-78
2022/07/28 05:58:35;;;;;;;13.40;5.60;;;;;;;24.00;62.94;100441.37;125018;1102;104325;-77
2022/07/28 06:01:24;;;;;;;12.63;4.73;;;;;;;24.02;63.06;100444.02;124956;1102;103211;-77
2022/07/28 06:04:08;;;;;;;8.50;4.77;;;;;;;24.01;62.87;100453.86;124943;1099;102583;-78
2022/07/28 06:06:58;;;;;;;10.50;5.00;;;;;;;24.03;62.75;100453.83;125019;1099;104062;-78
2022/07/28 06:09:35;;;;;;;9.83;4.87;;;;;;;24.07;62.79;100457.32;124965;1102;102702;-77
2022/07/28 06:12:19;;;;;;;10.27;4.47;;;;;;;24.12;62.78;100461.69;125037;1099;104162;-78
2022/07/28 06:15:04;;;;;;;10.83;4.97;;;;;;;24.22;62.54;100460.55;124991;1102;104399;-78
2022/07/28 06:17:52;;;;;;;12.20;5.23;;;;;;;24.28;62.03;100459.55;125522;1102;102362;-79
2022/07/28 06:20:30;;;;;;;8.18;5.17;;;;;;;24.26;61.93;100466.72;125038;1099;102252;-79
2022/07/28 06:26:06;;;;;;;8.73;4.70;;;;;;;24.25;61.73;100466.75;125028;1099;102414;-78
2022/07/28 06:28:44;;;;;;;8.00;4.60;;;;;;;24.27;61.68;100468.50;125209;1098;104382;-78
2022/07/28 06:34:35;;;;;;;11.10;4.77;;;;;;;24.42;61.31;100467.30;125390;1099;104282;-79
2022/07/28 06:37:15;;;;;;;7.97;5.00;;;;;;;24.51;60.93;100471.55;125340;1099;104063;-78
2022/07/28 06:40:17;;;;;;;12.23;5.23;;;;;;;24.62;60.60;100477.62;125666;1099;102391;-79
2022/07/28 06:43:12;;;;;;;11.23;5.50;;;;;;;24.68;60.58;100476.57;125585;1099;104228;-79
2022/07/28 06:46:02;;;;;;;8.30;5.17;;;;;;;24.75;60.51;100481.77;125633;1099;104121;-79
2022/07/28 06:49:16;;;;;;;9.47;5.10;;;;;;;24.84;60.03;100482.45;125700;1099;104163;-79
2022/07/28 06:52:03;;;;;;;12.37;5.20;;;;;;;24.92;59.74;100484.05;125485;1099;102161;-78
2022/07/28 06:54:43;;;;;;;8.43;5.00;;;;;;;25.02;59.48;100489.20;125668;1099;102112;-79
2022/07/28 06:57:43;;;;;;;10.47;5.20;;;;;;;25.16;59.46;100478.13;126545;1098;103429;-80
2022/07/28 07:00:32;;;;;;;9.13;5.00;;;;;;;25.32;59.40;100476.83;125046;1102;104334;-79
2022/07/28 07:03:07;;;;;;;8.77;4.70;;;;;;;25.47;59.04;100473.75;125096;1102;104226;-78
2022/07/28 07:05:49;;;;;;;11.43;4.73;;;;;;;25.62;58.47;100487.72;125090;1102;104172;-78
2022/07/28 07:08:33;;;;;;;11.10;5.00;;;;;;;25.72;58.32;100488.34;125048;1102;102325;-77
2022/07/28 07:11:12;;;;;;;9.23;4.77;;;;;;;25.75;58.61;100483.75;125070;1102;104236;-78
2022/07/28 07:14:02;;;;;;;7.83;4.50;;;;;;;25.86;58.33;100493.34;125015;1102;104537;-78
2022/07/28 07:16:56;;;;;;;8.00;4.50;;;;;;;25.94;57.67;100502.06;124986;1102;104268;-77
2022/07/28 07:19:39;;;;;;;12.53;5.50;;;;;;;26.08;57.81;100501.70;125463;1099;104239;-77
2022/07/28 07:22:26;;;;;;;8.47;4.67;;;;;;;26.33;57.41;100507.25;125658;1099;104156;-78
2022/07/28 07:25:15;;;;;;;10.33;5.23;;;;;;;26.53;57.24;100504.83;125478;1099;104162;-78
2022/07/28 07:38:36;;;;;;;10.67;5.13;;;;;;;27.31;55.18;100507.81;125174;1102;102296;-80
2022/07/28 07:41:41;;;;;;;11.07;5.00;;;;;;;27.35;54.92;100493.34;125533;1102;104318;-80
2022/07/28 07:44:24;;;;;;;13.47;5.30;;;;;;;27.48;54.66;100494.67;125082;1102;102499;-80
2022/07/28 07:47:38;;;;;;;9.70;5.07;;;;;;;27.49;53.44;100495.53;125545;1102;104233;-80
2022/07/28 07:50:46;;;;;;;10.27;5.20;;;;;;;27.53;53.67;100500.77;125187;1102;102510;-79
2022/07/28 08:00:59;;;;;;;10.23;5.13;;;;;;;28.07;52.39;100509.67;125228;1102;103011;-80
2022/07/28 08:03:43;;;;;;;9.33;5.27;;;;;;;28.24;51.10;100510.88;124964;1102;102632;-80
2022/07/28 08:06:26;;;;;;;8.43;4.80;;;;;;;28.40;51.01;100513.86;125406;1099;104210;-80
2022/07/28 08:09:47;;;;;;;7.93;5.00;;;;;;;28.55;50.90;100501.58;126541;1098;104076;-79
2022/07/28 08:12:32;;;;;;;9.30;4.63;;;;;;;28.50;50.97;100508.06;125587;1099;104332;-79
2022/07/28 08:15:08;;;;;;;7.53;4.97;;;;;;;28.60;50.36;100505.91;125602;1099;102273;-78
2022/07/28 08:17:56;;;;;;;12.00;4.93;;;;;;;28.68;50.12;100501.07;125593;1099;104162;-78
2022/07/28 08:20:42;;;;;;;8.33;4.73;;;;;;;28.81;48.93;100505.98;125740;1098;102684;-78
2022/07/28 08:23:35;;;;;;;;;;;;;;;;;;;;;
2022/07/28 08:26:34;;;;;;;9.83;5.00;;;;;;;28.80;47.39;100504.25;125820;1099;101952;-80
2022/07/28 08:29:40;;;;;;;13.10;5.27;;;;;;;28.89;48.22;100509.28;125076;1103;104064;-80
2022/07/28 08:33:09;;;;;;;;;;;;;;;;;;;;;
2022/07/28 08:36:52;;;;;;;8.13;4.90;;;;;;;28.96;47.54;100509.91;125016;1102;104220;-80
2022/07/28 08:39:47;;;;;;;9.67;4.77;;;;;;;29.10;47.91;100502.10;124945;1102;104236;-77
2022/07/28 08:43:01;;;;;;;16.63;5.77;;;;;;;29.29;47.23;100504.07;124890;1102;103060;-76
2022/07/28 08:46:05;;;;;;;13.78;5.20;;;;;;;29.36;46.87;100502.88;124813;1102;104241;-79
2022/07/28 08:49:07;;;;;;;8.63;5.30;;;;;;;29.44;47.03;100494.45;124808;1102;104240;-76
2022/07/28 08:52:07;;;;;;;15.13;5.10;;;;;;;29.46;46.97;100490.71;125018;1102;102049;-78
2022/07/28 08:54:51;;;;;;;9.73;5.40;;;;;;;29.56;45.89;100505.59;125313;1102;104185;-78
2022/07/28 08:57:37;;;;;;;9.93;4.97;;;;;;;29.56;46.15;100505.59;125009;1102;104396;-77
2022/07/28 09:00:39;;;;;;;8.93;5.03;;;;;;;29.59;45.54;100504.56;124889;1100;108067;-78
2022/07/28 09:03:41;;;;;;;8.73;5.03;;;;;;;29.62;45.68;100506.27;124968;1102;104210;-79
2022/07/28 09:06:22;;;;;;;8.63;4.57;;;;;;;29.66;45.37;100503.36;124959;1102;104280;-78
2022/07/28 09:09:01;;;;;;;8.85;4.95;;;;;;;29.72;45.13;100505.80;124949;1102;102453;-78
2022/07/28 09:15:46;;;;;;;12.07;5.80;;;;;;;29.76;44.77;100506.53;125472;1099;104229;-79
2022/07/28 09:18:23;;;;;;;9.00;5.57;;;;;;;29.83;44.71;100490.97;125648;1099;104211;-77
2022/07/28 09:21:38;;;;;;;9.80;5.00;;;;;;;29.74;44.48;100498.48;125610;1098;112421;-78
2022/07/28 09:24:44;;;;;;;9.63;5.37;;;;;;;29.83;44.48;100489.13;125697;1098;104348;-79
2022/07/28 09:27:43;;;;;;;9.83;5.07;;;;;;;29.97;44.22;100499.34;125582;1098;101938;-79
2022/07/28 09:30:29;;;;;;;8.17;5.13;;;;;;;30.11;43.57;100491.45;125445;1099;104373;-78
2022/07/28 09:33:36;;;;;;;7.97;5.30;;;;;;;30.29;43.56;100496.96;125621;1099;104188;-77
2022/07/28 09:36:29;;;;;;;8.20;5.20;;;;;;;30.41;43.27;100498.27;125566;1099;104182;-78
2022/07/28 09:39:56;;;;;;;;;;;;;;;;;;;;;
2022/07/28 09:43:24;;;;;;;9.33;4.90;;;;;;;30.54;42.88;100495.84;125641;1098;118875;-78
2022/07/28 09:46:54;;;;;;;;;;;;;;;;;;;;;
2022/07/28 09:50:00;;;;;;;8.13;5.20;;;;;;;30.49;42.36;100489.78;125773;1099;102666;-79
2022/07/28 09:53:01;;;;;;;10.53;4.90;;;;;;;30.57;42.48;100483.03;125144;1099;102158;-79
2022/07/28 09:56:03;;;;;;;6.40;4.37;;;;;;;30.69;42.27;100491.53;125033;1102;102411;-80
2022/07/28 09:59:11;;;;;;;11.03;5.07;;;;;;;30.69;41.80;100492.40;125120;1102;103108;-79
2022/07/28 10:02:07;;;;;;;6.67;4.70;;;;;;;30.74;41.80;100494.89;125058;1102;104376;-79
2022/07/28 10:04:55;;;;;;;9.33;5.27;;;;;;;30.80;41.13;100490.04;125399;1102;102523;-79
2022/07/28 10:07:44;;;;;;;9.37;4.70;;;;;;;30.87;41.24;100493.34;125143;1102;102183;-79
2022/07/28 10:13:12;;;;;;;10.00;4.80;;;;;;;30.87;40.36;100495.16;125159;1102;119340;-79
2022/07/28 10:16:13;;;;;;;9.57;4.70;;;;;;;30.88;40.24;100496.92;125285;1102;102115;-79
2022/07/28 10:19:13;;;;;;;8.43;4.90;;;;;;;30.88;40.27;100503.20;125233;1102;104406;-79
2022/07/28 10:22:02;;;;;;;9.17;5.00;;;;;;;30.90;39.65;100501.33;125373;1102;102255;-79
2022/07/28 10:24:51;;;;;;;8.63;4.77;;;;;;;31.00;40.08;100494.51;125347;1102;102117;-83
2022/07/28 10:27:31;;;;;;;;;;;;;;;31.19;39.67;100497.17;125686;1098;102227;-82
2022/07/28 10:30:14;;;;;;;7.33;4.70;;;;;;;31.29;40.05;100496.70;125728;1098;103937;-79
2022/07/28 10:32:58;;;;;;;8.70;4.87;;;;;;;31.30;39.79;100499.34;125979;1099;102371;-82
2022/07/28 10:35:40;;;;;;;12.00;5.17;;;;;;;31.40;39.96;100488.02;125990;1099;104156;-84
2022/07/28 10:38:16;;;;;;;11.40;4.90;;;;;;;31.54;40.10;100488.24;126139;1099;104230;-79
2022/07/28 10:40:50;;;;;;;7.97;5.10;;;;;;;31.59;39.54;100483.45;125820;1099;104249;-78
2022/07/28 10:43:30;;;;;;;8.87;5.20;;;;;;;31.59;39.30;100485.30;125691;1099;104252;-78
2022/07/28 10:46:10;;;;;;;8.33;5.00;;;;;;;31.62;39.41;100485.09;125166;1099;104061;-78
2022/07/28 10:48:51;;;;;;;9.73;4.80;;;;;;;31.57;39.09;100487.19;125693;1099;102191;-78
2022/07/28 10:51:36;;;;;;;7.67;4.80;;;;;;;31.54;39.06;100474.69;125577;1099;102420;-79
2022/07/28 10:54:29;;;;;;;11.53;5.20;;;;;;;31.42;38.92;100486.13;125970;1098;118732;-79
2022/07/28 10:57:11;;;;;;;9.17;5.03;;;;;;;31.42;38.97;100489.71;125792;1099;104192;-79
2022/07/28 11:00:20;;;;;;;7.60;4.43;;;;;;;31.50;39.00;100489.31;126431;1099;104223;-80
2022/07/28 11:03:42;;;;;;;15.83;5.72;;;;;;;31.45;38.78;100492.27;125652;1099;102355;-80
2022/07/28 11:06:49;;;;;;;8.27;4.53;;;;;;;31.50;38.94;100489.31;126564;1098;101771;-81
2022/07/28 11:09:28;;;;;;;10.23;4.83;;;;;;;31.49;38.98;100483.03;125717;1099;104159;-80
2022/07/28 11:12:20;;;;;;;7.20;4.90;;;;;;;31.46;38.69;100480.48;125133;1100;103380;-81
2022/07/28 11:15:49;;;;;;;;;;;;;;;;;;;;;
2022/07/28 11:19:17;;;;;;;8.20;4.70;;;;;;;31.51;38.98;100478.39;125149;1099;102442;-81
2022/07/28 11:26:33;;;;;;;7.97;4.70;;;;;;;31.77;38.57;100481.58;125805;1102;117831;-82
2022/07/28 11:34:12;;;;;;;8.37;4.60;;;;;;;31.86;38.40;100481.09;125075;1102;102586;-80
2022/07/28 11:37:39;;;;;;;12.33;4.80;;;;;;;31.98;38.08;100484.98;126100;1102;101745;-80
2022/07/28 11:48:51;;;;;;;8.17;5.20;;;;;;;31.86;37.52;100478.38;125199;1105;102865;-79
2022/07/28 11:52:15;;;;;;;8.73;4.93;;;;;;;31.80;37.65;100475.99;124543;1109;104878;-79
2022/07/28 11:55:01;;;;;;;9.73;5.03;;;;;;;31.85;37.63;100468.50;124551;1106;104255;-80
2022/07/28 11:58:23;;;;;;;11.93;5.23;;;;;;;31.89;37.86;100474.63;125063;1105;104345;-80
2022/07/28 12:01:34;;;;;;;;;;;;;;;;;;;;;
2022/07/28 12:04:53;;;;;;;11.77;5.60;;;;;;;31.75;37.37;100461.81;125013;1102;104061;-78
2022/07/28 12:08:01;;;;;;;8.23;4.70;;;;;;;31.82;37.38;100465.06;125156;1102;104284;-78
2022/07/28 12:11:01;;;;;;;12.53;5.83;;;;;;;31.86;37.46;100464.81;125083;1102;102378;-79
2022/07/28 12:13:43;;;;;;;10.53;4.93;;;;;;;31.85;37.22;100471.22;124981;1102;102319;-78
2022/07/28 12:16:40;;;;;;;10.23;5.03;;;;;;;31.89;37.61;100467.36;125653;1099;104826;-78
2022/07/28 12:19:44;;;;;;;;;;;;;;;;;;;;;
2022/07/28 12:22:32;;;;;;;9.83;4.73;;;;;;;32.05;37.30;100463.81;125044;1102;104150;-77
2022/07/28 12:25:33;;;;;;;11.83;5.17;;;;;;;32.14;37.38;100468.77;125029;1102;104143;-81
2022/07/28 12:28:32;;;;;;;10.00;4.97;;;;;;;32.10;36.74;100464.50;125065;1102;104225;-79
2022/07/28 12:31:34;;;;;;;15.03;5.23;;;;;;;32.04;37.13;100456.66;125077;1102;104338;-79
2022/07/28 12:34:44;;;;;;;8.50;5.07;;;;;;;32.04;37.15;100462.95;124853;1102;107948;-79
2022/07/28 12:38:11;;;;;;;11.23;5.00;;;;;;;32.05;36.86;100463.81;124688;1105;104245;-79
2022/07/28 12:41:01;;;;;;;10.53;5.17;;;;;;;32.20;36.81;100456.71;125167;1102;104797;-78
2022/07/28 12:44:07;;;;;;;9.77;5.10;;;;;;;32.32;36.69;100453.31;125022;1102;102305;-79
2022/07/28 12:47:26;;;;;;;;;;;;;;;;;;;;;
2022/07/28 12:50:16;;;;;;;;;;;;;;;32.38;36.65;100449.36;124988;1102;104194;-79
2022/07/28 12:53:28;;;;;;;10.23;4.63;;;;;;;32.48;36.71;100441.59;125060;1102;104339;-79
2022/07/28 12:56:23;;;;;;;15.50;5.20;;;;;;;32.47;36.43;100437.12;125528;1102;102366;-79
2022/07/28 12:59:19;;;;;;;;;;;;;;;;;;;;;
2022/07/28 13:02:11;;;;;;;7.93;4.97;;;;;;;32.53;36.43;100439.48;125009;1102;102205;-79
2022/07/28 13:04:56;;;;;;;12.90;5.03;;;;;;;32.53;36.26;100429.48;124746;1102;104169;-79
2022/07/28 13:08:02;;;;;;;7.20;5.15;;;;;;;32.46;36.01;100441.68;124831;1102;102511;-80
2022/07/28 13:11:16;;;;;;;10.97;5.07;;;;;;;32.25;36.07;100427.47;125011;1102;102822;-78
2022/07/28 13:14:02;;;;;;;8.87;4.93;;;;;;;32.13;36.12;100434.44;124998;1102;104584;-83
2022/07/28 13:17:16;;;;;;;;;;;;;;;;;;;;;
2022/07/28 13:20:27;;;;;;;;;;;;;;;;;;;;;
2022/07/28 13:23:59;;;;;;;7.17;5.17;;;;;;;32.38;35.50;100439.40;124846;1102;104146;-81
2022/07/28 13:27:26;;;;;;;9.40;5.10;;;;;;;32.29;35.95;100434.48;124920;1102;104076;-81
2022/07/28 13:30:09;;;;;;;12.50;5.10;;;;;;;32.23;35.88;100427.55;125006;1102;104255;-80
2022/07/28 13:36:13;;;;;;;11.70;4.87;;;;;;;32.14;36.07;100430.78;124725;1105;111268;-80
2022/07/28 13:39:09;;;;;;;11.50;4.90;;;;;;;32.12;36.25;100434.56;125403;1106;104226;-80